Metar z pełnej godziny Komunikat METAR ze strony awiacja.imgw.pl Metar G00 EPKT METAR EPKT 230900Z 25010KT 9999 -SHRA FEW009 SCT036CB BKN042 06/00 Q1021 =